sensor_id;sensor_type;location;lat;lon;timestamp;P1;durP1;ratioP1;P2;durP2;ratioP2
71679;SDS011;59512;42.662;23.254;2022-09-09T00:04:38;15.60;;;11.10;;
71679;SDS011;59512;42.662;23.254;2022-09-09T00:06:59;18.00;;;12.00;;
71679;SDS011;59512;42.662;23.254;2022-09-09T00:09:28;14.67;;;11.13;;
71679;SDS011;59512;42.662;23.254;2022-09-09T00:11:54;17.05;;;11.02;;
71679;SDS011;59512;42.662;23.254;2022-09-09T00:14:26;15.40;;;11.30;;
71679;SDS011;59512;42.662;23.254;2022-09-09T00:16:55;17.20;;;11.67;;
71679;SDS011;59512;42.662;23.254;2022-09-09T00:19:28;15.65;;;11.75;;
71679;SDS011;59512;42.662;23.254;2022-09-09T00:22:03;14.25;;;10.45;;
71679;SDS011;59512;42.662;23.254;2022-09-09T00:24:37;13.73;;;10.10;;
71679;SDS011;59512;42.662;23.254;2022-09-09T00:27:08;15.68;;;11.18;;
71679;SDS011;59512;42.662;23.254;2022-09-09T00:29:45;16.47;;;11.73;;
71679;SDS011;59512;42.662;23.254;2022-09-09T00:32:13;18.85;;;11.90;;
71679;SDS011;59512;42.662;23.254;2022-09-09T00:35:00;15.30;;;11.32;;
71679;SDS011;59512;42.662;23.254;2022-09-09T00:37:26;14.95;;;10.43;;
71679;SDS011;59512;42.662;23.254;2022-09-09T00:39:53;16.50;;;11.32;;
71679;SDS011;59512;42.662;23.254;2022-09-09T00:42:25;18.47;;;11.30;;
71679;SDS011;59512;42.662;23.254;2022-09-09T00:47:42;18.05;;;12.70;;
71679;SDS011;59512;42.662;23.254;2022-09-09T00:57:37;16.27;;;11.23;;
71679;SDS011;59512;42.662;23.254;2022-09-09T01:07:52;14.95;;;11.63;;
71679;SDS011;59512;42.662;23.254;2022-09-09T01:10:24;18.55;;;11.20;;
71679;SDS011;59512;42.662;23.254;2022-09-09T01:12:51;14.35;;;11.07;;
71679;SDS011;59512;42.662;23.254;2022-09-09T01:15:21;17.80;;;11.48;;
71679;SDS011;59512;42.662;23.254;2022-09-09T01:18:08;13.90;;;10.25;;
71679;SDS011;59512;42.662;23.254;2022-09-09T01:20:45;15.73;;;11.45;;
71679;SDS011;59512;42.662;23.254;2022-09-09T01:28:14;14.80;;;11.17;;
71679;SDS011;59512;42.662;23.254;2022-09-09T01:30:41;14.15;;;11.13;;
71679;SDS011;59512;42.662;23.254;2022-09-09T01:33:07;15.82;;;11.10;;
71679;SDS011;59512;42.662;23.254;2022-09-09T01:35:37;17.05;;;10.93;;
71679;SDS011;59512;42.662;23.254;2022-09-09T01:38:04;15.33;;;10.83;;
71679;SDS011;59512;42.662;23.254;2022-09-09T01:40:30;14.38;;;10.25;;
71679;SDS011;59512;42.662;23.254;2022-09-09T01:42:56;14.57;;;10.30;;
71679;SDS011;59512;42.662;23.254;2022-09-09T01:45:21;12.80;;;10.13;;
71679;SDS011;59512;42.662;23.254;2022-09-09T01:47:47;15.23;;;11.10;;
71679;SDS011;59512;42.662;23.254;2022-09-09T01:50:13;14.20;;;10.90;;
71679;SDS011;59512;42.662;23.254;2022-09-09T01:52:39;17.52;;;11.52;;
71679;SDS011;59512;42.662;23.254;2022-09-09T01:55:04;18.37;;;11.90;;
71679;SDS011;59512;42.662;23.254;2022-09-09T01:57:31;17.60;;;11.20;;
71679;SDS011;59512;42.662;23.254;2022-09-09T02:00:05;14.43;;;10.97;;
71679;SDS011;59512;42.662;23.254;2022-09-09T02:02:45;17.67;;;11.40;;
71679;SDS011;59512;42.662;23.254;2022-09-09T02:08:03;17.30;;;12.30;;
71679;SDS011;59512;42.662;23.254;2022-09-09T02:13:14;17.77;;;11.83;;
71679;SDS011;59512;42.662;23.254;2022-09-09T02:18:06;15.80;;;11.37;;
71679;SDS011;59512;42.662;23.254;2022-09-09T02:20:33;16.38;;;11.25;;
71679;SDS011;59512;42.662;23.254;2022-09-09T02:23:00;16.73;;;11.88;;
71679;SDS011;59512;42.662;23.254;2022-09-09T02:25:26;18.50;;;12.50;;
71679;SDS011;59512;42.662;23.254;2022-09-09T02:27:53;16.25;;;11.85;;
71679;SDS011;59512;42.662;23.254;2022-09-09T02:30:19;18.30;;;12.57;;
71679;SDS011;59512;42.662;23.254;2022-09-09T02:32:45;20.10;;;14.43;;
71679;SDS011;59512;42.662;23.254;2022-09-09T02:35:13;20.88;;;13.63;;
71679;SDS011;59512;42.662;23.254;2022-09-09T02:37:39;19.17;;;13.17;;
71679;SDS011;59512;42.662;23.254;2022-09-09T02:40:07;18.85;;;13.98;;
71679;SDS011;59512;42.662;23.254;2022-09-09T02:42:40;18.02;;;13.68;;
71679;SDS011;59512;42.662;23.254;2022-09-09T02:45:05;16.80;;;12.88;;
71679;SDS011;59512;42.662;23.254;2022-09-09T02:55:45;18.87;;;13.40;;
71679;SDS011;59512;42.662;23.254;2022-09-09T02:58:02;18.10;;;13.40;;
71679;SDS011;59512;42.662;23.254;2022-09-09T03:00:31;18.03;;;12.83;;
71679;SDS011;59512;42.662;23.254;2022-09-09T03:02:57;19.92;;;14.20;;
71679;SDS011;59512;42.662;23.254;2022-09-09T03:05:22;19.13;;;13.80;;
71679;SDS011;59512;42.662;23.254;2022-09-09T03:07:48;17.50;;;12.65;;
71679;SDS011;59512;42.662;23.254;2022-09-09T03:10:15;17.40;;;13.07;;
71679;SDS011;59512;42.662;23.254;2022-09-09T03:12:41;19.03;;;13.33;;
71679;SDS011;59512;42.662;23.254;2022-09-09T03:15:06;20.47;;;13.37;;
71679;SDS011;59512;42.662;23.254;2022-09-09T03:17:32;16.35;;;12.10;;
71679;SDS011;59512;42.662;23.254;2022-09-09T03:19:57;17.07;;;12.93;;
71679;SDS011;59512;42.662;23.254;2022-09-09T03:22:23;18.38;;;13.55;;
71679;SDS011;59512;42.662;23.254;2022-09-09T03:24:50;18.87;;;13.03;;
71679;SDS011;59512;42.662;23.254;2022-09-09T03:27:15;17.77;;;12.75;;
71679;SDS011;59512;42.662;23.254;2022-09-09T03:29:41;15.77;;;11.83;;
71679;SDS011;59512;42.662;23.254;2022-09-09T03:32:06;14.90;;;11.70;;
71679;SDS011;59512;42.662;23.254;2022-09-09T03:34:31;16.40;;;12.67;;
71679;SDS011;59512;42.662;23.254;2022-09-09T03:36:56;17.03;;;13.30;;
71679;SDS011;59512;42.662;23.254;2022-09-09T03:39:22;17.13;;;13.07;;
71679;SDS011;59512;42.662;23.254;2022-09-09T03:41:47;17.20;;;11.90;;
71679;SDS011;59512;42.662;23.254;2022-09-09T03:44:13;16.92;;;12.32;;
71679;SDS011;59512;42.662;23.254;2022-09-09T03:46:39;19.00;;;12.37;;
71679;SDS011;59512;42.662;23.254;2022-09-09T03:49:04;19.00;;;12.50;;
71679;SDS011;59512;42.662;23.254;2022-09-09T03:51:29;20.23;;;14.10;;
71679;SDS011;59512;42.662;23.254;2022-09-09T03:53:55;20.33;;;13.25;;
71679;SDS011;59512;42.662;23.254;2022-09-09T03:56:21;18.83;;;13.03;;
71679;SDS011;59512;42.662;23.254;2022-09-09T03:58:47;20.55;;;13.55;;
71679;SDS011;59512;42.662;23.254;2022-09-09T04:01:12;20.52;;;12.88;;
71679;SDS011;59512;42.662;23.254;2022-09-09T04:03:38;18.17;;;13.30;;
71679;SDS011;59512;42.662;23.254;2022-09-09T04:06:04;19.33;;;13.27;;
71679;SDS011;59512;42.662;23.254;2022-09-09T04:08:30;18.13;;;13.13;;
71679;SDS011;59512;42.662;23.254;2022-09-09T04:10:56;21.00;;;13.43;;
71679;SDS011;59512;42.662;23.254;2022-09-09T04:13:23;21.23;;;14.50;;
71679;SDS011;59512;42.662;23.254;2022-09-09T04:15:52;19.87;;;13.70;;
71679;SDS011;59512;42.662;23.254;2022-09-09T04:18:18;21.05;;;14.30;;
71679;SDS011;59512;42.662;23.254;2022-09-09T04:20:45;25.02;;;15.77;;
71679;SDS011;59512;42.662;23.254;2022-09-09T04:23:11;21.77;;;14.73;;
71679;SDS011;59512;42.662;23.254;2022-09-09T04:25:37;19.75;;;13.40;;
71679;SDS011;59512;42.662;23.254;2022-09-09T04:28:02;22.47;;;14.37;;
71679;SDS011;59512;42.662;23.254;2022-09-09T04:30:28;20.40;;;13.70;;
71679;SDS011;59512;42.662;23.254;2022-09-09T04:32:53;18.57;;;13.10;;
71679;SDS011;59512;42.662;23.254;2022-09-09T04:35:18;20.73;;;12.43;;
71679;SDS011;59512;42.662;23.254;2022-09-09T04:37:45;21.20;;;14.25;;
71679;SDS011;59512;42.662;23.254;2022-09-09T04:40:10;24.98;;;14.38;;
71679;SDS011;59512;42.662;23.254;2022-09-09T04:42:36;21.08;;;13.27;;
71679;SDS011;59512;42.662;23.254;2022-09-09T04:45:01;17.67;;;12.90;;
71679;SDS011;59512;42.662;23.254;2022-09-09T04:47:27;18.30;;;12.88;;
71679;SDS011;59512;42.662;23.254;2022-09-09T04:49:52;18.85;;;13.77;;
71679;SDS011;59512;42.662;23.254;2022-09-09T04:52:19;22.35;;;13.75;;
71679;SDS011;59512;42.662;23.254;2022-09-09T04:54:44;19.88;;;14.18;;
71679;SDS011;59512;42.662;23.254;2022-09-09T04:57:10;19.20;;;13.67;;
71679;SDS011;59512;42.662;23.254;2022-09-09T04:59:36;21.23;;;14.07;;
71679;SDS011;59512;42.662;23.254;2022-09-09T05:02:01;21.27;;;14.07;;
71679;SDS011;59512;42.662;23.254;2022-09-09T05:04:27;22.97;;;14.70;;
71679;SDS011;59512;42.662;23.254;2022-09-09T05:06:53;20.92;;;13.63;;
71679;SDS011;59512;42.662;23.254;2022-09-09T05:09:19;18.63;;;13.20;;
71679;SDS011;59512;42.662;23.254;2022-09-09T05:11:44;24.23;;;14.23;;
71679;SDS011;59512;42.662;23.254;2022-09-09T05:14:09;19.37;;;13.47;;
71679;SDS011;59512;42.662;23.254;2022-09-09T05:16:36;18.90;;;13.40;;
71679;SDS011;59512;42.662;23.254;2022-09-09T05:19:01;24.30;;;16.17;;
71679;SDS011;59512;42.662;23.254;2022-09-09T05:21:28;25.57;;;16.23;;
71679;SDS011;59512;42.662;23.254;2022-09-09T05:23:54;21.40;;;14.40;;
71679;SDS011;59512;42.662;23.254;2022-09-09T05:26:20;21.90;;;14.30;;
71679;SDS011;59512;42.662;23.254;2022-09-09T05:28:45;21.90;;;15.07;;
71679;SDS011;59512;42.662;23.254;2022-09-09T05:31:12;18.13;;;13.70;;
71679;SDS011;59512;42.662;23.254;2022-09-09T05:33:38;20.70;;;13.15;;
71679;SDS011;59512;42.662;23.254;2022-09-09T05:36:09;22.87;;;14.30;;
71679;SDS011;59512;42.662;23.254;2022-09-09T05:38:36;19.75;;;14.70;;
71679;SDS011;59512;42.662;23.254;2022-09-09T05:41:02;19.02;;;14.13;;
71679;SDS011;59512;42.662;23.254;2022-09-09T05:43:27;19.37;;;14.30;;
71679;SDS011;59512;42.662;23.254;2022-09-09T05:46:00;21.55;;;15.05;;
71679;SDS011;59512;42.662;23.254;2022-09-09T05:48:32;18.45;;;14.50;;
71679;SDS011;59512;42.662;23.254;2022-09-09T05:50:58;21.27;;;14.68;;
71679;SDS011;59512;42.662;23.254;2022-09-09T05:53:24;25.67;;;15.45;;
71679;SDS011;59512;42.662;23.254;2022-09-09T05:55:50;21.47;;;14.40;;
71679;SDS011;59512;42.662;23.254;2022-09-09T05:58:15;22.63;;;15.67;;
71679;SDS011;59512;42.662;23.254;2022-09-09T06:00:42;25.40;;;16.02;;
71679;SDS011;59512;42.662;23.254;2022-09-09T06:03:10;25.60;;;17.10;;
71679;SDS011;59512;42.662;23.254;2022-09-09T06:05:35;24.00;;;16.15;;
71679;SDS011;59512;42.662;23.254;2022-09-09T06:08:01;21.83;;;15.30;;
71679;SDS011;59512;42.662;23.254;2022-09-09T06:10:26;25.90;;;15.07;;
71679;SDS011;59512;42.662;23.254;2022-09-09T06:12:52;23.00;;;15.73;;
71679;SDS011;59512;42.662;23.254;2022-09-09T06:15:17;22.27;;;14.70;;
71679;SDS011;59512;42.662;23.254;2022-09-09T06:17:42;24.73;;;15.53;;
71679;SDS011;59512;42.662;23.254;2022-09-09T06:20:10;20.50;;;14.50;;
71679;SDS011;59512;42.662;23.254;2022-09-09T06:22:35;18.95;;;13.80;;
71679;SDS011;59512;42.662;23.254;2022-09-09T06:25:00;20.00;;;13.60;;
71679;SDS011;59512;42.662;23.254;2022-09-09T06:27:27;21.07;;;14.43;;
71679;SDS011;59512;42.662;23.254;2022-09-09T06:29:52;22.30;;;15.43;;
71679;SDS011;59512;42.662;23.254;2022-09-09T06:32:17;19.50;;;14.35;;
71679;SDS011;59512;42.662;23.254;2022-09-09T06:34:42;22.57;;;13.60;;
71679;SDS011;59512;42.662;23.254;2022-09-09T06:37:10;23.73;;;14.80;;
71679;SDS011;59512;42.662;23.254;2022-09-09T06:39:35;21.15;;;13.95;;
71679;SDS011;59512;42.662;23.254;2022-09-09T06:42:00;20.90;;;13.50;;
71679;SDS011;59512;42.662;23.254;2022-09-09T06:44:26;22.47;;;14.70;;
71679;SDS011;59512;42.662;23.254;2022-09-09T06:46:52;26.33;;;16.30;;
71679;SDS011;59512;42.662;23.254;2022-09-09T06:49:17;21.20;;;14.00;;
71679;SDS011;59512;42.662;23.254;2022-09-09T06:51:42;19.63;;;14.27;;
71679;SDS011;59512;42.662;23.254;2022-09-09T06:54:08;23.00;;;15.70;;
71679;SDS011;59512;42.662;23.254;2022-09-09T06:56:34;26.50;;;15.30;;
71679;SDS011;59512;42.662;23.254;2022-09-09T06:59:01;21.23;;;13.77;;
71679;SDS011;59512;42.662;23.254;2022-09-09T07:01:29;19.05;;;13.05;;
71679;SDS011;59512;42.662;23.254;2022-09-09T07:03:55;22.30;;;13.52;;
71679;SDS011;59512;42.662;23.254;2022-09-09T07:06:26;19.85;;;14.63;;
71679;SDS011;59512;42.662;23.254;2022-09-09T07:08:52;22.48;;;14.25;;
71679;SDS011;59512;42.662;23.254;2022-09-09T07:11:18;16.93;;;12.27;;
71679;SDS011;59512;42.662;23.254;2022-09-09T07:13:44;20.33;;;12.50;;
71679;SDS011;59512;42.662;23.254;2022-09-09T07:16:10;17.20;;;12.73;;
71679;SDS011;59512;42.662;23.254;2022-09-09T07:18:35;18.63;;;13.70;;
71679;SDS011;59512;42.662;23.254;2022-09-09T07:21:02;22.30;;;13.43;;
71679;SDS011;59512;42.662;23.254;2022-09-09T07:23:28;20.73;;;13.32;;
71679;SDS011;59512;42.662;23.254;2022-09-09T07:25:53;21.20;;;13.23;;
71679;SDS011;59512;42.662;23.254;2022-09-09T07:28:21;21.13;;;13.30;;
71679;SDS011;59512;42.662;23.254;2022-09-09T07:31:00;22.92;;;13.10;;
71679;SDS011;59512;42.662;23.254;2022-09-09T07:33:29;18.83;;;12.17;;
71679;SDS011;59512;42.662;23.254;2022-09-09T07:36:05;24.75;;;12.82;;
71679;SDS011;59512;42.662;23.254;2022-09-09T07:38:30;19.95;;;12.43;;
71679;SDS011;59512;42.662;23.254;2022-09-09T07:41:05;17.87;;;11.73;;
71679;SDS011;59512;42.662;23.254;2022-09-09T07:43:32;19.65;;;11.32;;
71679;SDS011;59512;42.662;23.254;2022-09-09T07:45:58;18.35;;;11.90;;
71679;SDS011;59512;42.662;23.254;2022-09-09T07:48:23;17.60;;;11.33;;
71679;SDS011;59512;42.662;23.254;2022-09-09T07:50:49;18.27;;;12.40;;
71679;SDS011;59512;42.662;23.254;2022-09-09T07:53:14;19.43;;;11.47;;
71679;SDS011;59512;42.662;23.254;2022-09-09T07:55:40;20.10;;;12.80;;
71679;SDS011;59512;42.662;23.254;2022-09-09T07:58:05;17.90;;;11.70;;
71679;SDS011;59512;42.662;23.254;2022-09-09T08:00:30;19.13;;;13.30;;
71679;SDS011;59512;42.662;23.254;2022-09-09T08:02:58;18.23;;;12.55;;
71679;SDS011;59512;42.662;23.254;2022-09-09T08:05:24;16.90;;;11.40;;
71679;SDS011;59512;42.662;23.254;2022-09-09T08:07:50;15.45;;;11.82;;
71679;SDS011;59512;42.662;23.254;2022-09-09T08:10:15;20.97;;;12.00;;
71679;SDS011;59512;42.662;23.254;2022-09-09T08:12:41;21.08;;;12.27;;
71679;SDS011;59512;42.662;23.254;2022-09-09T08:15:06;19.55;;;13.10;;
71679;SDS011;59512;42.662;23.254;2022-09-09T08:17:31;17.40;;;11.73;;
71679;SDS011;59512;42.662;23.254;2022-09-09T08:19:57;18.77;;;12.17;;
71679;SDS011;59512;42.662;23.254;2022-09-09T08:22:23;20.23;;;12.70;;
71679;SDS011;59512;42.662;23.254;2022-09-09T08:24:49;20.65;;;12.13;;
71679;SDS011;59512;42.662;23.254;2022-09-09T08:27:14;18.60;;;11.10;;
71679;SDS011;59512;42.662;23.254;2022-09-09T08:29:40;19.17;;;11.57;;
71679;SDS011;59512;42.662;23.254;2022-09-09T08:32:05;21.50;;;12.50;;
71679;SDS011;59512;42.662;23.254;2022-09-09T08:34:30;17.13;;;11.57;;
71679;SDS011;59512;42.662;23.254;2022-09-09T08:36:56;16.45;;;11.57;;
71679;SDS011;59512;42.662;23.254;2022-09-09T08:39:21;20.37;;;11.47;;
71679;SDS011;59512;42.662;23.254;2022-09-09T08:49:40;16.13;;;10.88;;
71679;SDS011;59512;42.662;23.254;2022-09-09T08:52:09;14.63;;;10.52;;
71679;SDS011;59512;42.662;23.254;2022-09-09T08:54:37;16.17;;;10.02;;
71679;SDS011;59512;42.662;23.254;2022-09-09T08:57:03;15.00;;;9.73;;
71679;SDS011;59512;42.662;23.254;2022-09-09T08:59:35;16.90;;;10.55;;
71679;SDS011;59512;42.662;23.254;2022-09-09T09:02:14;13.23;;;9.55;;
71679;SDS011;59512;42.662;23.254;2022-09-09T09:12:18;19.23;;;8.90;;
71679;SDS011;59512;42.662;23.254;2022-09-09T09:14:45;13.50;;;9.27;;
71679;SDS011;59512;42.662;23.254;2022-09-09T09:17:12;13.25;;;9.13;;
71679;SDS011;59512;42.662;23.254;2022-09-09T09:19:39;16.17;;;8.82;;
71679;SDS011;59512;42.662;23.254;2022-09-09T09:24:53;14.07;;;8.20;;
71679;SDS011;59512;42.662;23.254;2022-09-09T09:27:30;13.98;;;7.85;;
71679;SDS011;59512;42.662;23.254;2022-09-09T09:29:56;14.35;;;8.23;;
71679;SDS011;59512;42.662;23.254;2022-09-09T09:32:23;13.70;;;8.93;;
71679;SDS011;59512;42.662;23.254;2022-09-09T09:34:58;12.82;;;7.60;;
71679;SDS011;59512;42.662;23.254;2022-09-09T09:37:32;15.52;;;8.32;;
71679;SDS011;59512;42.662;23.254;2022-09-09T09:40:13;12.25;;;7.38;;
71679;SDS011;59512;42.662;23.254;2022-09-09T09:42:47;13.05;;;8.05;;
71679;SDS011;59512;42.662;23.254;2022-09-09T09:45:17;13.70;;;8.60;;
71679;SDS011;59512;42.662;23.254;2022-09-09T09:47:45;12.43;;;7.43;;
71679;SDS011;59512;42.662;23.254;2022-09-09T09:50:19;15.68;;;7.82;;
71679;SDS011;59512;42.662;23.254;2022-09-09T09:52:53;11.07;;;7.20;;
71679;SDS011;59512;42.662;23.254;2022-09-09T09:55:18;12.82;;;7.47;;
71679;SDS011;59512;42.662;23.254;2022-09-09T09:57:44;15.67;;;8.17;;
71679;SDS011;59512;42.662;23.254;2022-09-09T10:00:16;12.00;;;7.27;;
71679;SDS011;59512;42.662;23.254;2022-09-09T10:02:43;14.60;;;7.32;;
71679;SDS011;59512;42.662;23.254;2022-09-09T10:05:14;13.57;;;7.03;;
71679;SDS011;59512;42.662;23.254;2022-09-09T10:07:39;11.73;;;7.10;;
71679;SDS011;59512;42.662;23.254;2022-09-09T10:10:05;12.20;;;7.03;;
71679;SDS011;59512;42.662;23.254;2022-09-09T10:20:04;13.23;;;7.50;;
71679;SDS011;59512;42.662;23.254;2022-09-09T10:22:35;13.40;;;7.18;;
71679;SDS011;59512;42.662;23.254;2022-09-09T10:30:35;15.27;;;7.45;;
71679;SDS011;59512;42.662;23.254;2022-09-09T10:33:21;14.10;;;7.57;;
71679;SDS011;59512;42.662;23.254;2022-09-09T10:36:11;14.20;;;6.93;;
71679;SDS011;59512;42.662;23.254;2022-09-09T10:38:41;11.70;;;7.18;;
71679;SDS011;59512;42.662;23.254;2022-09-09T10:41:24;12.27;;;7.00;;
71679;SDS011;59512;42.662;23.254;2022-09-09T10:46:48;13.07;;;7.67;;
71679;SDS011;59512;42.662;23.254;2022-09-09T10:49:43;13.15;;;7.85;;
71679;SDS011;59512;42.662;23.254;2022-09-09T10:59:54;16.73;;;9.43;;
71679;SDS011;59512;42.662;23.254;2022-09-09T11:07:13;18.27;;;9.33;;
71679;SDS011;59512;42.662;23.254;2022-09-09T11:09:41;12.82;;;8.35;;
71679;SDS011;59512;42.662;23.254;2022-09-09T11:12:09;15.05;;;8.40;;
71679;SDS011;59512;42.662;23.254;2022-09-09T11:17:15;18.13;;;8.85;;
71679;SDS011;59512;42.662;23.254;2022-09-09T11:19:42;15.60;;;7.90;;
71679;SDS011;59512;42.662;23.254;2022-09-09T11:24:38;12.70;;;8.47;;
71679;SDS011;59512;42.662;23.254;2022-09-09T11:34:53;13.23;;;8.48;;
71679;SDS011;59512;42.662;23.254;2022-09-09T11:42:34;12.93;;;8.90;;
71679;SDS011;59512;42.662;23.254;2022-09-09T11:47:55;15.20;;;8.95;;
71679;SDS011;59512;42.662;23.254;2022-09-09T11:52:49;21.67;;;8.17;;
71679;SDS011;59512;42.662;23.254;2022-09-09T11:57:57;13.70;;;8.00;;
71679;SDS011;59512;42.662;23.254;2022-09-09T12:02:57;14.30;;;7.90;;
71679;SDS011;59512;42.662;23.254;2022-09-09T12:05:23;15.53;;;8.37;;
71679;SDS011;59512;42.662;23.254;2022-09-09T12:07:52;12.70;;;7.57;;
71679;SDS011;59512;42.662;23.254;2022-09-09T12:10:20;16.50;;;8.40;;
71679;SDS011;59512;42.662;23.254;2022-09-09T12:12:46;15.98;;;9.55;;
71679;SDS011;59512;42.662;23.254;2022-09-09T12:17:43;14.25;;;8.48;;
71679;SDS011;59512;42.662;23.254;2022-09-09T12:20:13;14.60;;;8.13;;
71679;SDS011;59512;42.662;23.254;2022-09-09T12:30:28;19.17;;;8.32;;
71679;SDS011;59512;42.662;23.254;2022-09-09T12:33:15;11.32;;;7.50;;
71679;SDS011;59512;42.662;23.254;2022-09-09T12:35:42;14.05;;;8.40;;
71679;SDS011;59512;42.662;23.254;2022-09-09T12:38:10;16.45;;;8.25;;
71679;SDS011;59512;42.662;23.254;2022-09-09T12:40:37;17.23;;;8.27;;
71679;SDS011;59512;42.662;23.254;2022-09-09T12:43:19;13.75;;;5.97;;
71679;SDS011;59512;42.662;23.254;2022-09-09T12:45:46;13.55;;;5.68;;
71679;SDS011;59512;42.662;23.254;2022-09-09T12:48:12;12.93;;;6.00;;
71679;SDS011;59512;42.662;23.254;2022-09-09T12:50:44;12.60;;;6.03;;
71679;SDS011;59512;42.662;23.254;2022-09-09T12:53:12;10.90;;;5.20;;
71679;SDS011;59512;42.662;23.254;2022-09-09T12:55:48;13.68;;;5.75;;
71679;SDS011;59512;42.662;23.254;2022-09-09T12:58:13;10.07;;;5.60;;
71679;SDS011;59512;42.662;23.254;2022-09-09T13:00:48;11.35;;;6.13;;
71679;SDS011;59512;42.662;23.254;2022-09-09T13:03:18;10.88;;;5.10;;
71679;SDS011;59512;42.662;23.254;2022-09-09T13:05:45;12.35;;;5.93;;
71679;SDS011;59512;42.662;23.254;2022-09-09T13:08:12;10.93;;;6.03;;
71679;SDS011;59512;42.662;23.254;2022-09-09T13:10:45;10.57;;;5.77;;
71679;SDS011;59512;42.662;23.254;2022-09-09T13:13:15;10.07;;;5.80;;
71679;SDS011;59512;42.662;23.254;2022-09-09T13:18:35;12.00;;;6.10;;
71679;SDS011;59512;42.662;23.254;2022-09-09T13:21:01;10.38;;;5.55;;
71679;SDS011;59512;42.662;23.254;2022-09-09T13:23:27;14.27;;;5.87;;
71679;SDS011;59512;42.662;23.254;2022-09-09T13:25:54;12.75;;;6.00;;
71679;SDS011;59512;42.662;23.254;2022-09-09T13:28:20;13.57;;;6.33;;
71679;SDS011;59512;42.662;23.254;2022-09-09T13:30:55;16.15;;;7.53;;
71679;SDS011;59512;42.662;23.254;2022-09-09T13:33:21;16.38;;;8.30;;
71679;SDS011;59512;42.662;23.254;2022-09-09T13:35:54;13.52;;;7.68;;
71679;SDS011;59512;42.662;23.254;2022-09-09T13:38:19;15.20;;;8.00;;
71679;SDS011;59512;42.662;23.254;2022-09-09T13:40:53;13.07;;;7.97;;
71679;SDS011;59512;42.662;23.254;2022-09-09T13:43:21;16.00;;;8.00;;
71679;SDS011;59512;42.662;23.254;2022-09-09T13:45:54;20.25;;;8.65;;
71679;SDS011;59512;42.662;23.254;2022-09-09T13:48:21;17.15;;;8.25;;
71679;SDS011;59512;42.662;23.254;2022-09-09T13:50:56;11.90;;;7.90;;
71679;SDS011;59512;42.662;23.254;2022-09-09T13:53:21;14.80;;;7.45;;
71679;SDS011;59512;42.662;23.254;2022-09-09T13:55:47;12.40;;;7.23;;
71679;SDS011;59512;42.662;23.254;2022-09-09T13:58:16;16.20;;;7.67;;
71679;SDS011;59512;42.662;23.254;2022-09-09T14:00:44;12.70;;;7.70;;
71679;SDS011;59512;42.662;23.254;2022-09-09T14:03:09;12.43;;;7.43;;
71679;SDS011;59512;42.662;23.254;2022-09-09T14:05:35;13.60;;;7.35;;
71679;SDS011;59512;42.662;23.254;2022-09-09T14:08:00;10.53;;;5.90;;
71679;SDS011;59512;42.662;23.254;2022-09-09T14:10:28;16.13;;;8.05;;
71679;SDS011;59512;42.662;23.254;2022-09-09T14:12:53;13.73;;;7.10;;
71679;SDS011;59512;42.662;23.254;2022-09-09T14:15:18;13.20;;;7.60;;
71679;SDS011;59512;42.662;23.254;2022-09-09T14:17:45;14.52;;;7.90;;
71679;SDS011;59512;42.662;23.254;2022-09-09T14:20:10;12.18;;;8.07;;
71679;SDS011;59512;42.662;23.254;2022-09-09T14:22:37;19.63;;;8.07;;
71679;SDS011;59512;42.662;23.254;2022-09-09T14:25:04;13.98;;;7.95;;
71679;SDS011;59512;42.662;23.254;2022-09-09T14:27:30;16.70;;;8.60;;
71679;SDS011;59512;42.662;23.254;2022-09-09T14:29:55;15.57;;;8.20;;
71679;SDS011;59512;42.662;23.254;2022-09-09T14:32:22;16.73;;;7.72;;
71679;SDS011;59512;42.662;23.254;2022-09-09T14:34:47;17.93;;;7.07;;
71679;SDS011;59512;42.662;23.254;2022-09-09T14:37:16;12.57;;;7.10;;
71679;SDS011;59512;42.662;23.254;2022-09-09T14:39:41;14.23;;;7.77;;
71679;SDS011;59512;42.662;23.254;2022-09-09T14:42:09;12.55;;;7.40;;
71679;SDS011;59512;42.662;23.254;2022-09-09T14:44:36;13.02;;;7.20;;
71679;SDS011;59512;42.662;23.254;2022-09-09T14:47:02;15.68;;;8.35;;
71679;SDS011;59512;42.662;23.254;2022-09-09T14:49:27;13.03;;;7.60;;
71679;SDS011;59512;42.662;23.254;2022-09-09T14:51:53;13.27;;;7.70;;
71679;SDS011;59512;42.662;23.254;2022-09-09T14:54:18;15.63;;;8.53;;
71679;SDS011;59512;42.662;23.254;2022-09-09T14:56:43;15.57;;;8.00;;
71679;SDS011;59512;42.662;23.254;2022-09-09T14:59:09;13.37;;;8.17;;
71679;SDS011;59512;42.662;23.254;2022-09-09T15:01:34;13.80;;;8.03;;
71679;SDS011;59512;42.662;23.254;2022-09-09T15:04:00;13.10;;;7.97;;
71679;SDS011;59512;42.662;23.254;2022-09-09T15:06:26;17.20;;;8.02;;
71679;SDS011;59512;42.662;23.254;2022-09-09T15:08:52;15.25;;;8.45;;
71679;SDS011;59512;42.662;23.254;2022-09-09T15:11:18;20.55;;;9.18;;
71679;SDS011;59512;42.662;23.254;2022-09-09T15:13:45;16.90;;;7.93;;
71679;SDS011;59512;42.662;23.254;2022-09-09T15:16:15;16.00;;;8.25;;
71679;SDS011;59512;42.662;23.254;2022-09-09T15:18:40;19.45;;;8.50;;
71679;SDS011;59512;42.662;23.254;2022-09-09T15:21:08;17.00;;;7.32;;
71679;SDS011;59512;42.662;23.254;2022-09-09T15:23:34;13.48;;;7.43;;
71679;SDS011;59512;42.662;23.254;2022-09-09T15:25:59;16.45;;;7.90;;
71679;SDS011;59512;42.662;23.254;2022-09-09T15:28:25;15.33;;;8.30;;
71679;SDS011;59512;42.662;23.254;2022-09-09T15:30:51;16.58;;;8.32;;
71679;SDS011;59512;42.662;23.254;2022-09-09T15:33:17;19.25;;;9.45;;
71679;SDS011;59512;42.662;23.254;2022-09-09T15:35:42;16.55;;;9.85;;
71679;SDS011;59512;42.662;23.254;2022-09-09T15:38:07;12.63;;;8.33;;
71679;SDS011;59512;42.662;23.254;2022-09-09T15:40:33;18.23;;;9.53;;
71679;SDS011;59512;42.662;23.254;2022-09-09T15:42:58;15.50;;;8.70;;
71679;SDS011;59512;42.662;23.254;2022-09-09T15:45:24;14.50;;;7.60;;
71679;SDS011;59512;42.662;23.254;2022-09-09T15:47:49;17.90;;;8.70;;
71679;SDS011;59512;42.662;23.254;2022-09-09T15:50:14;15.48;;;8.00;;
71679;SDS011;59512;42.662;23.254;2022-09-09T15:52:40;15.57;;;7.20;;
71679;SDS011;59512;42.662;23.254;2022-09-09T15:55:05;15.67;;;8.33;;
71679;SDS011;59512;42.662;23.254;2022-09-09T15:57:31;21.43;;;8.83;;
71679;SDS011;59512;42.662;23.254;2022-09-09T15:59:56;17.85;;;7.80;;
71679;SDS011;59512;42.662;23.254;2022-09-09T16:02:22;16.80;;;8.48;;
71679;SDS011;59512;42.662;23.254;2022-09-09T16:04:47;20.27;;;8.00;;
71679;SDS011;59512;42.662;23.254;2022-09-09T16:07:12;17.30;;;7.93;;
71679;SDS011;59512;42.662;23.254;2022-09-09T16:09:38;14.00;;;7.90;;
71679;SDS011;59512;42.662;23.254;2022-09-09T16:12:04;15.50;;;7.63;;
71679;SDS011;59512;42.662;23.254;2022-09-09T16:14:34;15.60;;;7.43;;
71679;SDS011;59512;42.662;23.254;2022-09-09T16:17:01;15.88;;;8.95;;
71679;SDS011;59512;42.662;23.254;2022-09-09T16:19:26;16.47;;;8.50;;
71679;SDS011;59512;42.662;23.254;2022-09-09T16:21:51;18.40;;;8.20;;
71679;SDS011;59512;42.662;23.254;2022-09-09T16:24:18;15.75;;;8.63;;
71679;SDS011;59512;42.662;23.254;2022-09-09T16:26:44;15.45;;;8.23;;